Tiempo atmosférico en la estación meteorológica de Ávila, Ávila (1130 m.)

Fecha
DESCASC
Temp. máxima en grados centígrados (hora)
DESCASC
Temp. mínima en grados centígrados (hora)
DESCASC
Temp. media en grados centígrados
DESCASC
Racha de viento máxima en m/sg (hora)
DESCASC
Velocidad máxima media en intervalos de 10 minutos(hora)
DESCASC
Precipitaciones diarias en mm
DESCASC
Precipitaciones de 00:00 a 06:00 en mm
DESCASC
Precipitaciones de 06:00 a 12:00 en mm
DESCASC
Precipitaciones de 12:00 a 18:00 en mm
DESCASC
Precipitaciones de 18:00 a 24:00 en mm
DESCASC
17-09-2017 21.2 (16:40) 4.6 (07:10) 12.9 9.72 (17:50) 5.28 (17:00) 0 0 0 0 0
16-09-2017 16.4 (17:10) 4.8 (07:50) 10.6 9.72 (18:00) 5.83 (18:40) 0 0 0 0 0
15-09-2017 16.8 (18:00) 7.7 (07:50) 12.2 10.56 (16:00) 6.11 (15:50) 0 0 0 0 0
14-09-2017 24.5 (18:10) 12 (00:00) 18.3 8.33 (18:20) 5 (11:20) 0 0 0 0 0
13-09-2017 28.2 (17:00) 10.6 (00:00) 19.4 8.61 (17:50) 3.89 (11:20) 0 0 0 0 0
12-09-2017 22.5 (17:50) 12.2 (00:00) 17.3 10 (07:30) 6.67 (08:00) 0 0 0 0 0
11-09-2017 25.4 (16:50) 11.3 (00:00) 18.3 12.5 (17:10) 7.5 (16:00) 0 0 0 0 0
10-09-2017 19.9 (18:20) 6.8 (00:00) 13.3 8.89 (00:30) 5.56 (17:10) 0 0 0 0 0
09-09-2017 19.3 (00:00) 12.1 (00:00) 15.7 13.33 (17:00) 8.06 (09:50) 0 0 0 0 0
08-09-2017 28.7 (16:00) 10.4 (00:00) 19.6 9.72 (18:10) 5.83 (20:00) 0 0 0 0 0
07-09-2017 24.6 (17:50) 9.1 (00:00) 16.9 7.5 (13:40) 4.17 (13:50) 0 0 0 0 0
06-09-2017 27.5 (17:20) 14.1 (00:00) 20.8 9.17 (21:50) 5.83 (20:30) 0 0 0 0 0
05-09-2017 29.9 (16:40) 13.7 (00:00) 21.8 8.33 (18:30) 5 (18:30) 0 0 0 0 0
04-09-2017 25.1 (17:40) 14.2 (00:00) 19.7 7.78 (14:20) 4.72 (14:20) 0 0 0 0 0
03-09-2017 28.7 (18:20) 13.2 (00:00) 21 10.28 (17:20) 5.56 (15:10) 0 0 0 0 0
02-09-2017 25.4 (17:50) 7.8 (00:00) 16.6 6.39 (17:20) 3.61 (19:00) 0 0 0 0 0
01-09-2017 22.7 (17:30) 12.1 (00:00) 17.4 10.56 (16:40) 5 (16:40) 0 0 0 0 0
31-08-2017 22.8 (16:40) 13 (00:00) 17.9 8.33 (17:20) 4.72 (17:20) 3.4 3.4 0 0 0
30-08-2017 23.3 (15:10) 11.6 (00:00) 17.4 9.72 (14:30) 4.44 (23:00) 0 0 0 0 0
29-08-2017 22.4 (15:30) 13.5 (00:00) 17.9 9.17 (01:20) 5 (01:30) 0 0 0 0 0
28-08-2017 20.1 (12:00) 14.5 (00:00) 17.3 11.39 (03:00) 5 (15:20) 22 12.6 3.4 6 0
27-08-2017 24.1 (14:40) 12.4 (00:00) 18.3 16.11 (18:20) 6.67 (07:00) 30 0 2.2 0.4 27.4
26-08-2017 27 (13:30) 18.3 (00:00) 22.6 14.72 (15:00) 6.67 (18:00) 0 0 0 0 0
25-08-2017 30.8 (15:00) 14.5 (00:00) 22.6 13.06 (16:40) 6.67 (16:40) 0 0 0 0 0
24-08-2017 31.3 (17:30) 16.9 (00:00) 24.1 12.22 (14:20) 6.67 (13:50) 0 0 0 0 0
23-08-2017 32 (17:50) 17.1 (00:00) 24.6 8.06 (14:30) 4.44 (17:20) 0 0 0 0 0
22-08-2017 33.4 (16:10) 18.9 (00:00) 26.2 11.67 (14:00) 4.72 (19:00) 0 0 0 0 0

Gráficas

Temp. máximas Temp. mínimas Temp. medias Precipitaciones Rachas de viento máximas Velocidades máximas media en intervalos de 10 minutos

Datos horarios

Fecha y hora oficial Temperatura (ºC) Velocidad del viento (km/h) Dirección del viento Racha (km/h) Dirección de racha Precipitación (mm) Presión (hPa) Tendencia (hPa) Humedad (%)
2017-09-20 23:00:00 16.6 4 Sur 10 Sudeste 0 891.6 0.5 37
2017-09-20 22:00:00 18.1 6 Este 10 Este 0 891.4 0.4 37
2017-09-20 21:00:00 20.3 5 Sudeste 12 Sur 0 891.2 0.2 31
2017-09-20 20:00:00 23.5 3 Sur 11 Sudeste 0 891.1 -0.2 24
2017-09-20 19:00:00 25.3 4 Este 13 Sudoeste 0 891 -0.8 21
2017-09-20 18:00:00 26.4 5 Oeste 21 Noroeste 0 891 -1.3 18
2017-09-20 17:00:00 26.1 5 Sudeste 21 Sudeste 0 891.3 -1.4 21
2017-09-20 16:00:00 25.5 12 Sur 21 Sudeste 0 891.8 -1.5 22
2017-09-20 15:00:00 24.9 10 Sudeste 19 Sudeste 0 892.3 -1.3 22
2017-09-20 14:00:00 24.2 8 Sudeste 22 Sudeste 0 892.7 -1.2 23
2017-09-20 13:00:00 22.4 12 Sudeste 22 Sudeste 0 893.3 -0.7 26
2017-09-20 12:00:00 20.4 13 Sudeste 23 Sudeste 0 893.6 -0.4 28
2017-09-20 11:00:00 15.9 5 Sudeste 12 Sudeste 0 893.9 0 40
2017-09-20 10:00:00 12.1 3 Sur 8 Sur 0 894 0.2 47
2017-09-20 09:00:00 8.6 3 Sur 6 Sur 0 894 -0.2 61
2017-09-20 08:00:00 7.4 3 Sur 6 Sudeste 0 893.9 -0.5 66
2017-09-20 07:00:00 7.1 3 Sudeste 8 Sur 0 893.8 -0.9 68
2017-09-20 06:00:00 7.2 2 Sudeste 6 Sudeste 0 894.2 -0.8 66
2017-09-20 05:00:00 7.6 3 Este 6 Sudeste 0 894.4 -0.6 67
2017-09-20 04:00:00 8.3 2 Sur 6 Sur 0 894.7 -0.6 64
2017-09-20 03:00:00 8.9 2 Sudeste 5 Sudeste 0 895 -0.5 61
2017-09-20 02:00:00 10.1 3 Sur 12 Sur 0 895 -0.5 55
2017-09-20 01:00:00 10.7 3 Sur 9 Sudoeste 0 895.3 -0.1 53
2017-09-20 00:00:00 11.5 4 Sudoeste 7 Sudoeste 0 895.5 0.4 53
2017-09-19 23:00:00 13.5 4 Nordeste 6 Norte 0 895.5 0.6 47
2017-09-19 22:00:00 16 4 Norte 12 Norte 0 895.4 0.8 39
2017-09-19 21:00:00 17.5 9 Norte 19 Noroeste 0 895.1 0.5 35
2017-09-19 20:00:00 19.8 11 Norte 21 Noroeste 0 894.9 0.1 32
2017-09-19 19:00:00 21.4 12 Noroeste 24 Noroeste 0 894.6 -0.5 26
2017-09-19 18:00:00 21.8 12 Norte 25 Norte 0 894.6 -1 24
2017-09-19 17:00:00 21.6 13 Norte 26 Norte 0 894.8 -1.4 29
2017-09-19 16:00:00 21.3 13 Noroeste 26 Norte 0 895.1 -1.4 26
2017-09-19 15:00:00 20.3 10 Norte 23 Norte 0 895.6 -1 34
2017-09-19 14:00:00 19 12 Nordeste 21 Norte 0 896.2 -0.2 40
2017-09-19 13:00:00 18.1 7 Noroeste 18 Noroeste 0 896.5 0.5 46
2017-09-19 12:00:00 16.8 7 Norte 16 Norte 0 896.6 0.9 51
2017-09-19 11:00:00 13.8 3 Sudoeste 6 Sudoeste 0 896.4 1 62
2017-09-19 10:00:00 10.8 3 Sudoeste 6 Sur 0 896 0.7 71
2017-09-19 09:00:00 8.3 2 Sur 4 Sur 0 895.7 0.5 82
2017-09-19 08:00:00 7 0 Calma 3 Sudeste 0 895.4 0.2 87
2017-09-19 07:00:00 7.5 3 Sudeste 5 Sudeste 0 895.3 -0.1 84
2017-09-19 06:00:00 7.9 3 Sur 5 Sur 0 895.2 -0.3 82
2017-09-19 05:00:00 8.8 3 Sur 6 Sudoeste 0 895.2 -0.2 79
2017-09-19 04:00:00 10 3 Sudoeste 12 Sudoeste 0 895.4 0 73
2017-09-19 03:00:00 11.1 5 Sur 10 Noroeste 0 895.5 0.3 67
2017-09-19 02:00:00 11.9 5 Noroeste 15 Noroeste 0 895.4 0.2 63
2017-09-19 01:00:00 12.1 4 Noroeste 12 Noroeste 0 895.4 0.6 62
2017-09-19 00:00:00 12.9 6 Noroeste 13 Oeste 0 895.2 1.1 58
2017-09-18 23:00:00 13.2 7 Noroeste 10 Noroeste 0 895.2 1.5 54
2017-09-18 22:00:00 14.3 6 Noroeste 13 Norte 0 894.8 1.5 49
2017-09-18 21:00:00 16.1 9 Noroeste 21 Norte 0 894.1 0.9 43
2017-09-18 20:00:00 17.8 14 Noroeste 28 Oeste 0 893.7 0.7 40
2017-09-18 19:00:00 18.6 19 Noroeste 33 Noroeste 0 893.3 0.1 37
2017-09-18 18:00:00 18.3 18 Noroeste 37 Noroeste 0 893.2 0 38
2017-09-18 17:00:00 18.8 17 Noroeste 38 Noroeste 0 893 -0.1 37
2017-09-18 16:00:00 18 19 Noroeste 38 Noroeste 0 893.2 0.3 40
2017-09-18 15:00:00 17.5 21 Noroeste 36 Oeste 0 893.2 0.6 43
2017-09-18 14:00:00 15.8 22 Noroeste 37 Noroeste 0 893.1 0.6 48
2017-09-18 13:00:00 15.4 18 Noroeste 37 Noroeste 0 892.9 0.9 58
2017-09-18 12:00:00 16.1 18 Noroeste 37 Oeste 0 892.6 0.9 54
2017-09-18 11:00:00 14.4 21 Noroeste 32 Noroeste 0 892.5 1.1 61
2017-09-18 10:00:00 11.7 9 Noroeste 14 Noroeste 0 892 0.8 67
2017-09-18 09:00:00 9.7 3 Este 7 Sudoeste 0 891.7 0.5 67
2017-09-18 08:00:00 8.9 5 Sudeste 12 Noroeste 0 891.4 0.2 69
2017-09-18 07:00:00 9.2 7 Noroeste 23 Noroeste 0 891.2 0.1 73
2017-09-18 06:00:00 9.9 13 Norte 21 Norte 0 891.2 -0.1 64
2017-09-18 05:00:00 10.1 12 Noroeste 19 Noroeste 0 891.2 -0.3 63
2017-09-18 04:00:00 8.8 8 Oeste 17 Noroeste 0 891.1 -0.6 64
2017-09-18 03:00:00 8.6 0 Calma 9 Sur 0 891.3 -0.4 50
2017-09-18 02:00:00 9 3 Sur 5 Sudoeste 0 891.5 -0.5 52
2017-09-18 01:00:00 10.1 2 Sur 9 Sudeste 0 891.7 0.1 49
2017-09-18 00:00:00 11.7 5 Sudeste 16 Noroeste 0 891.7 0.8 40
2017-09-17 23:00:00 13.5 3 Norte 15 Noroeste 0 892 1.6 35
2017-09-17 22:00:00 14.8 9 Norte 17 Norte 0 891.6 1.3 30
2017-09-17 21:00:00 16.2 10 Norte 21 Noroeste 0 890.9 0.7 28
2017-09-17 20:00:00 18.5 13 Noroeste 25 Norte 0 890.4 0.2 23
2017-09-17 19:00:00 20 17 Noroeste 30 Noroeste 0 890.3 -0.1 23
2017-09-17 18:00:00 20 19 Noroeste 35 Noroeste 0 890.2 -0.4 20
2017-09-17 17:00:00 20.8 19 Noroeste 31 Noroeste 0 890.2 -0.8 21
2017-09-17 16:00:00 20.4 16 Noroeste 30 Norte 0 890.4 -1 21
2017-09-17 15:00:00 19.8 12 Nordeste 29 Nordeste 0 890.6 -1 28
2017-09-17 14:00:00 18.8 5 Noroeste 14 Norte 0 891 -0.6 29
2017-09-17 13:00:00 17.1 5 Norte 15 Norte 0 891.4 -0.1 34
2017-09-17 12:00:00 15.6 6 Sudoeste 14 Oeste 0 891.6 0.6 36
2017-09-17 11:00:00 13.1 3 Norte 9 Este 0 891.6 1.2 43
2017-09-17 10:00:00 10.8 0 Calma 4 Noroeste 0 891.5 1.4 48
2017-09-17 09:00:00 7 2 Sudeste 6 Sudeste 0 891 1.1 61
2017-09-17 08:00:00 4.9 0 Calma 8 Sudeste 0 890.4 0.2 67
2017-09-17 07:00:00 4.7 4 Sudeste 5 Sudeste 0 890.1 -0.1 67
2017-09-17 06:00:00 5.5 2 Sur 8 Sudeste 0 889.9 -0.4 61
2017-09-17 05:00:00 5.6 4 Sur 9 Sur 0 890.2 -0.1 59
2017-09-17 04:00:00 6.2 3 Sur 7 Sur 0 890.2 -0.1 56
2017-09-17 03:00:00 7.1 3 Sudeste 10 Sur 0 890.3 -0.2 51
2017-09-17 02:00:00 7.4 3 Este 7 Sur 0 890.3 0.2 51
2017-09-17 01:00:00 8.2 3 Sur 7 Sudeste 0 890.3 0.5 50
2017-09-17 00:00:00 9 2 Sur 7 Sur 0 890.5 1.3 53
2017-09-16 23:00:00 10.6 4 Sur 11 Sur 0 890.1 1.3 39
2017-09-16 22:00:00 11.9 8 Norte 12 Norte 0 889.8 1.2 35
2017-09-16 21:00:00 13 8 Norte 21 Noroeste 0 889.2 1 32
2017-09-16 20:00:00 14.8 13 Noroeste 29 Noroeste 0 888.8 0.7 29
2017-09-16 19:00:00 15.7 16 Noroeste 35 Noroeste 0 888.6 0.5 29
2017-09-16 18:00:00 16.1 19 Noroeste 35 Noroeste 0 888.2 -0.3 28
2017-09-16 17:00:00 15.8 16 Noroeste 30 Noroeste 0 888.1 -0.7 31
2017-09-16 16:00:00 15.5 14 Norte 30 Norte 0 888.1 -1 33
2017-09-16 15:00:00 14.3 12 Norte 27 Norte 0 888.5 -0.6 39
2017-09-16 14:00:00 13.7 16 Norte 29 Norte 0 888.8 -0.2 40
2017-09-16 13:00:00 12.8 13 Norte 24 Noroeste 0 889.1 0.4 43
2017-09-16 12:00:00 12.5 10 Noroeste 18 Noroeste 0 889.1 0.7 44
2017-09-16 11:00:00 10.6 6 Oeste 10 Oeste 0 889 1.3 58
2017-09-16 10:00:00 7.8 4 Sur 7 Sur 0 888.7 1.4 68
2017-09-16 09:00:00 5.4 0 Calma 9 Sur 0 888.4 0.8 76
2017-09-16 08:00:00 4.8 0 Calma 7 Sur 0 887.7 0 78
2017-09-16 07:00:00 5.5 4 Sudoeste 9 Sudoeste 0 887.3 -0.6 77
2017-09-16 06:00:00 6 5 Sudoeste 10 Sur 0 887.6 -0.6 76
2017-09-16 05:00:00 6.4 4 Noroeste 6 Norte 0 887.7 -0.3 76
2017-09-16 04:00:00 6.5 5 Norte 11 Norte 0 887.9 -0.3 75
2017-09-16 03:00:00 7 5 Norte 12 Norte 0 888.2 -0.2 70
2017-09-16 02:00:00 8.1 4 Norte 15 Nordeste 0 888 -0.2 64
2017-09-16 01:00:00 8.8 7 Norte 20 Nordeste 0 888.2 0 59
2017-09-16 00:00:00 10 10 Nordeste 26 Nordeste 0 888.4 0.8 53
2017-09-15 23:00:00 11 7 Norte 23 Nordeste 0 888.2 0.7 46
2017-09-15 22:00:00 12.1 6 Norte 14 Norte 0 888.2 0.8 42
2017-09-15 21:00:00 13.5 9 Norte 24 Norte 0 887.6 0.4 35
2017-09-15 20:00:00 14.9 13 Norte 27 Norte 0 887.5 0 32
2017-09-15 19:00:00 16 14 Norte 31 Norte 0 887.4 -0.2 32
2017-09-15 18:00:00 16.6 18 Norte 30 Noroeste 0 887.2 -0.8 30
2017-09-15 17:00:00 16.5 16 Norte 35 Norte 0 887.5 -0.9 30
2017-09-15 16:00:00 16.2 18 Noroeste 38 Norte 0 887.6 -1.1 34
2017-09-15 15:00:00 15.6 20 Noroeste 32 Noroeste 0 888 -1.2 39
2017-09-15 14:00:00 14.4 15 Norte 31 Noroeste 0 888.4 -0.9 43
2017-09-15 13:00:00 12.7 13 Norte 27 Noroeste 0 888.7 -0.4 53
2017-09-15 12:00:00 10.9 13 Norte 26 Noroeste 0 889.2 0.3 61
2017-09-15 11:00:00 9.6 13 Noroeste 27 Noroeste 0 889.3 0.6 64
2017-09-15 10:00:00 8.3 13 Noroeste 21 Noroeste 0 889.1 0.4 70
2017-09-15 09:00:00 7.9 11 Noroeste 22 Norte 0 888.9 0.3 73
2017-09-15 08:00:00 7.8 12 Noroeste 19 Noroeste 0 888.7 0 78
2017-09-15 07:00:00 7.9 14 Noroeste 23 Norte 0 888.7 -0.3 80
2017-09-15 06:00:00 7.8 11 Norte 17 Norte 0 888.6 -0.7 82
2017-09-15 05:00:00 8.6 9 Norte 22 Norte 0 888.7 -1 77
2017-09-15 04:00:00 9.8 10 Norte 18 Noroeste 0 889 -1.1 71
2017-09-15 03:00:00 10.8 9 Norte 23 Noroeste 0 889.3 -0.8 67
2017-09-15 02:00:00 11.7 10 Norte 19 Norte 0 889.7 -0.4 66
2017-09-15 01:00:00 13 11 Norte 19 Norte 0 890.1 0.3 63
2017-09-15 00:00:00 14.6 8 Noroeste 17 Norte 0 890.1 0.5 61
2017-09-14 23:00:00 16.8 7 Nordeste 17 Norte 0 890.1 0.2 56
2017-09-14 22:00:00 18.8 11 Norte 28 Noroeste 0 889.8 -0.3 46
2017-09-14 21:00:00 20.9 8 Noroeste 17 Noroeste 0 889.6 -1 37
2017-09-14 20:00:00 23 12 Noroeste 27 Noroeste 0 889.9 -1.5 33
2017-09-14 19:00:00 24 13 Noroeste 30 Noroeste 0 890.1 -1.9 33
2017-09-14 18:00:00 24.3 15 Noroeste 28 Noroeste 0 890.6 -2.4 34
2017-09-14 17:00:00 23.7 10 Noroeste 23 Noroeste 0 891.4 -2.1 39
2017-09-14 16:00:00 23.1 11 Norte 27 Norte 0 892 -2.2 40
2017-09-14 15:00:00 23 12 Norte 27 Norte 0 893 -1.5 39
2017-09-14 14:00:00 21.6 16 Norte 27 Noroeste 0 893.5 -0.8 42
2017-09-14 13:00:00 20.6 14 Noroeste 26 Norte 0 894.2 0.3 41
2017-09-14 12:00:00 19.2 16 Noroeste 25 Noroeste 0 894.5 0.9 53
2017-09-14 11:00:00 17.8 15 Noroeste 25 Noroeste 0 894.3 1 58
2017-09-14 10:00:00 16.6 9 Norte 14 Norte 0 893.9 0.4 63
2017-09-14 09:00:00 14.1 3 Nordeste 9 Nordeste 0 893.6 -0.1 66
2017-09-14 08:00:00 12.2 3 Sudeste 8 Sur 0 893.3 -0.6 70
2017-09-14 07:00:00 12.7 2 Sudeste 8 Sur 0 893.5 -0.7 67
2017-09-14 06:00:00 13.3 3 Sudoeste 8 Sudoeste 0 893.7 -0.8 64
2017-09-14 05:00:00 13.9 2 Sudoeste 8 Sur 0 893.9 -0.6 62
2017-09-14 04:00:00 15.2 5 Sudoeste 10 Sudoeste 0 894.2 -0.2 57
2017-09-14 03:00:00 15.8 3 Oeste 13 Sudoeste 0 894.5 0 53
2017-09-14 02:00:00 15.9 5 Oeste 11 Noroeste 0 894.5 -0.2 49
2017-09-14 01:00:00 16.2 0 Calma 5 Noroeste 0 894.4 0.1 55
2017-09-14 00:00:00 17.5 0 Calma 6 Oeste 0 894.5 0.7 51
2017-09-13 23:00:00 19.3 6 Norte 10 Norte 0 894.7 1.3 41
2017-09-13 22:00:00 21.9 4 Sudoeste 12 Oeste 0 894.3 0.9 35
2017-09-13 21:00:00 24.2 5 Oeste 18 Norte 0 893.8 0.2 29
2017-09-13 20:00:00 26.2 6 Nordeste 21 Este 0 893.4 -0.7 31
2017-09-13 19:00:00 27.4 11 Este 22 Este 0 893.4 -1.2 27
2017-09-13 18:00:00 27.9 12 Este 31 Este 0 893.6 -1.5 27
2017-09-13 17:00:00 28.1 10 Sur 22 Sur 0 894.1 -1.7 27
2017-09-13 16:00:00 27.7 8 Sur 24 Sur 0 894.6 -1.7 27
2017-09-13 15:00:00 26.8 8 Sudeste 22 Sudeste 0 895.1 -1.3 30
2017-09-13 14:00:00 25.7 10 Sur 23 Sudeste 0 895.8 -0.5 32
2017-09-13 13:00:00 24.3 9 Sudeste 25 Sudeste 0 896.3 0.2 33
2017-09-13 12:00:00 22.8 11 Sur 26 Sudeste 0 896.4 0.6 35
2017-09-13 11:00:00 20.3 13 Sudeste 24 Sudeste 0 896.3 0.7 38
2017-09-13 10:00:00 14.7 5 Sur 13 Sudoeste 0 896.1 1.1 65
2017-09-13 09:00:00 11.7 5 Sudoeste 10 Sudoeste 0 895.8 0.9 76
2017-09-13 08:00:00 10.8 4 Sudoeste 9 Sudoeste 0 895.6 0.3 78
2017-09-13 07:00:00 12 3 Sudeste 12 Sudeste 0 895 -0.5 75
2017-09-13 06:00:00 11.9 4 Sudeste 9 Sudeste 0 894.9 -0.9 77
2017-09-13 05:00:00 12.3 2 Este 7 Este 0 895.3 -0.4 76
2017-09-13 04:00:00 13 4 Este 6 Sudeste 0 895.5 -0.2 70
2017-09-13 03:00:00 13.7 2 Nordeste 11 Sur 0 895.8 0.2 68
2017-09-13 02:00:00 14.4 5 Sur 9 Oeste 0 895.7 0.5 61
2017-09-13 01:00:00 14.7 4 Sur 9 Sudoeste 0 895.7 0.9 57
2017-09-13 00:00:00 15.1 2 Este 8 Sudoeste 0 895.6 1.3 56
2017-09-12 23:00:00 16.5 4 Sudoeste 7 Sur 0 895.2 1.4 50
2017-09-12 22:00:00 18.5 4 Nordeste 12 Norte 0 894.8 1.3 44
2017-09-12 21:00:00 19.9 9 Norte 18 Norte 0 894.3 0.9 39
2017-09-12 20:00:00 21.7 11 Noroeste 21 Norte 0 893.8 0.4 35
2017-09-12 19:00:00 22.2 12 Noroeste 23 Noroeste 0 893.5 0.1 34
2017-09-12 18:00:00 22 14 Norte 30 Noroeste 0 893.4 -0.3 36
2017-09-12 17:00:00 21.8 14 Norte 29 Noroeste 0 893.4 -0.2 37
2017-09-12 16:00:00 21.2 12 Noroeste 27 Noroeste 0 893.4 -0.2 39
2017-09-12 15:00:00 20.6 12 Noroeste 26 Norte 0 893.7 0.5 40
2017-09-12 14:00:00 19.6 13 Noroeste 27 Norte 0 893.6 0.6 41
2017-09-12 13:00:00 18 14 Norte 26 Norte 0 893.6 0.9 45
2017-09-12 12:00:00 16.7 14 Noroeste 25 Noroeste 0 893.2 1.4 51
2017-09-12 11:00:00 15.2 12 Norte 22 Norte 0 893 1.7 59
2017-09-12 10:00:00 13.7 16 Noroeste 24 Noroeste 0 892.7 2 65
2017-09-12 09:00:00 12.4 13 Noroeste 33 Noroeste 0 891.8 1.2 72
2017-09-12 08:00:00 12.4 24 Noroeste 36 Noroeste 0 891.3 0.6 75
2017-09-12 07:00:00 12.2 16 Noroeste 25 Noroeste 0 890.7 0 73
2017-09-12 06:00:00 12.5 15 Noroeste 27 Noroeste 0 890.6 -0.1 70
2017-09-12 05:00:00 13.1 14 Noroeste 27 Noroeste 0 890.7 0.2 66
2017-09-12 04:00:00 13.9 12 Noroeste 20 Noroeste 0 890.7 0.1 62
2017-09-12 03:00:00 14.9 9 Norte 27 Oeste 0 890.7 0.2 57
2017-09-12 02:00:00 16 15 Noroeste 24 Noroeste 0 890.5 0.3 53
2017-09-12 01:00:00 17.1 15 Noroeste 29 Noroeste 0 890.6 0.6 49
2017-09-12 00:00:00 17.8 15 Oeste 26 Oeste 0 890.5 1.1 47
2017-09-11 23:00:00 18.7 16 Noroeste 32 Noroeste 0 890.2 1.1 46
2017-09-11 22:00:00 19.6 15 Noroeste 23 Noroeste 0 890 0.9 47
2017-09-11 21:00:00 21 14 Noroeste 34 Noroeste 0 889.4 0.4 43
2017-09-11 20:00:00 23.2 15 Noroeste 37 Noroeste 0 889.1 0.3 38
2017-09-11 19:00:00 24.2 24 Noroeste 43 Oeste 0 889.1 -0.1 35
2017-09-11 18:00:00 24.9 23 Oeste 45 Noroeste 0 889 -0.8 33
2017-09-11 17:00:00 25.3 23 Oeste 42 Oeste 0 888.8 -1.3 30
2017-09-11 16:00:00 24.8 27 Noroeste 44 Noroeste 0 889.2 -1.1 33
2017-09-11 15:00:00 23.9 25 Noroeste 44 Noroeste 0 889.8 -0.6 36
2017-09-11 14:00:00 23.5 18 Oeste 38 Oeste 0 890.1 -0.5 36
2017-09-11 13:00:00 21.9 20 Noroeste 34 Noroeste 0 890.3 0.1 43
2017-09-11 12:00:00 20.4 18 Noroeste 36 Noroeste 0 890.4 0.1 54
2017-09-11 11:00:00 18.7 5 Oeste 20 Oeste 0 890.6 0.6 61
2017-09-11 10:00:00 16 9 Noroeste 16 Noroeste 0 890.2 0.4 73
2017-09-11 09:00:00 13.5 7 Nordeste 12 Nordeste 0 890.3 0.6 75
2017-09-11 08:00:00 11.6 4 Sudeste 9 Sudeste 0 890 -0.1 74
2017-09-11 07:00:00 11.9 3 Oeste 8 Sudoeste 0 889.8 -0.4 73
2017-09-11 06:00:00 12.8 3 Sudoeste 13 Sudoeste 0 889.7 -0.8 67
2017-09-11 05:00:00 12.8 6 Sudoeste 11 Sudoeste 0 890.1 -0.6 62
2017-09-11 04:00:00 14.1 6 Sudoeste 15 Oeste 0 890.2 -0.7 58
2017-09-11 03:00:00 14 8 Noroeste 15 Noroeste 0 890.5 -0.5 60
2017-09-11 02:00:00 13.6 5 Noroeste 9 Noroeste 0 890.7 0 55
2017-09-11 01:00:00 14.3 4 Noroeste 10 Noroeste 0 890.9 0.4 45
2017-09-11 00:00:00 14.8 5 Oeste 9 Noroeste 0 891 1.1 39
2017-09-10 23:00:00 15.4 5 Noroeste 10 Oeste 0 890.7 1 37
2017-09-10 22:00:00 16.5 5 Oeste 11 Noroeste 0 890.5 0.9 33
2017-09-10 21:00:00 17.8 9 Noroeste 22 Noroeste 0 889.9 0.5 29
2017-09-10 20:00:00 19.1 15 Noroeste 31 Norte 0 889.7 0.1 27
2017-09-10 19:00:00 19.7 19 Noroeste 32 Noroeste 0 889.6 -0.1 26
2017-09-10 18:00:00 19.5 19 Noroeste 31 Norte 0 889.4 -0.9 26
2017-09-10 17:00:00 19.2 17 Noroeste 29 Noroeste 0 889.6 -0.4 29
2017-09-10 16:00:00 18.2 14 Noroeste 29 Noroeste 0 889.7 -0.4 34
2017-09-10 15:00:00 16.9 15 Noroeste 28 Noroeste 0 890.3 0.1 37
2017-09-10 14:00:00 15.5 14 Norte 29 Noroeste 0 890 0.3 41
2017-09-10 13:00:00 14 9 Norte 25 Norte 0 890.1 0.8 47
2017-09-10 12:00:00 12.6 14 Norte 24 Norte 0 890.2 1.2 52
2017-09-10 11:00:00 11.5 11 Norte 19 Norte 0 889.7 1.2 57
2017-09-10 10:00:00 9.9 13 Noroeste 23 Noroeste 0 889.3 1.4 63
2017-09-10 09:00:00 8.1 6 Noroeste 12 Noroeste 0 889 1.5 71
2017-09-10 08:00:00 6.8 6 Noroeste 17 Norte 0 888.5 1.1 75
2017-09-10 07:00:00 7.4 10 Noroeste 18 Noroeste 0 887.9 0.8 73
2017-09-10 06:00:00 7.4 6 Noroeste 15 Noroeste 0 887.5 0.5 74
2017-09-10 05:00:00 7.8 9 Noroeste 18 Noroeste 0 887.4 0.6 71
2017-09-10 04:00:00 8.3 12 Noroeste 20 Noroeste 0 887.1 0.4 69
2017-09-10 03:00:00 8.9 12 Noroeste 24 Noroeste 0 887 0.7 63
2017-09-10 02:00:00 10.2 13 Noroeste 25 Noroeste 0 886.8 0.9 59
2017-09-10 01:00:00 11.1 12 Noroeste 32 Norte 0 886.7 1.5 55
2017-09-10 00:00:00 12.1 18 Noroeste 36 Noroeste 0 886.3 1.7 51
2017-09-09 23:00:00 13.2 16 Noroeste 35 Noroeste 0 885.9 1.7 44
2017-09-09 22:00:00 14.5 19 Noroeste 38 Noroeste 0 885.2 1.4 40
2017-09-09 21:00:00 15.2 18 Noroeste 46 Noroeste 0 884.6 0.8 33
2017-09-09 20:00:00 16.5 26 Noroeste 43 Noroeste 0 884.2 0 35
2017-09-09 19:00:00 17.4 23 Noroeste 47 Noroeste 0 883.8 -0.6 32
2017-09-09 18:00:00 18.3 27 Noroeste 45 Noroeste 0 883.8 -0.9 34
2017-09-09 17:00:00 18.5 26 Noroeste 48 Noroeste 0 884.2 -0.7 30
2017-09-09 16:00:00 17.8 22 Noroeste 42 Noroeste 0 884.4 -0.8 37
2017-09-09 15:00:00 17.7 25 Noroeste 43 Oeste 0 884.7 -0.8 40
2017-09-09 14:00:00 16.8 23 Noroeste 39 Noroeste 0 884.9 -0.8 46
2017-09-09 13:00:00 15.7 23 Noroeste 39 Noroeste 0 885.2 -0.1 59
2017-09-09 12:00:00 13.5 22 Noroeste 40 Noroeste 0 885.5 0.4 72
2017-09-09 11:00:00 13.8 23 Noroeste 43 Noroeste 0 885.7 0.4 71
2017-09-09 10:00:00 13.7 26 Noroeste 44 Noroeste 0 885.3 -0.3 71
2017-09-09 09:00:00 12.5 18 Noroeste 32 Noroeste 0 885.1 -0.2 77
2017-09-09 08:00:00 12.6 17 Oeste 31 Oeste 0 885.3 0 72
2017-09-09 07:00:00 13 14 Oeste 33 Noroeste 0 885.6 0.1 65
2017-09-09 06:00:00 14.4 15 Noroeste 29 Noroeste 0 885.3 -0.9 57
2017-09-09 05:00:00 15.4 7 Noroeste 14 Norte 0 885.3 -1.6 45
2017-09-09 04:00:00 15.1 5 Sudeste 12 Sur 0 885.5 -2 38
2017-09-09 03:00:00 16.5 9 Sur 19 Oeste 0 886.2 -1.3 33
2017-09-09 02:00:00 17.7 8 Oeste 22 Oeste 0 886.9 -0.4 37
2017-09-09 01:00:00 17.8 8 Oeste 28 Sudoeste 0 887.5 0.2 28
2017-09-09 00:00:00 19.3 14 Sudoeste 30 Sudoeste 0 887.5 0.3 21
2017-09-08 23:00:00 19.4 5 Oeste 14 Noroeste 0 887.3 0.4 19
2017-09-08 22:00:00 20.8 6 Sudoeste 21 Noroeste 0 887.3 0.3 16
2017-09-08 21:00:00 22.8 13 Noroeste 27 Noroeste 0 887.2 0 14
2017-09-08 20:00:00 25.4 21 Noroeste 34 Noroeste 0 886.9 -0.6 13
2017-09-08 19:00:00 27.4 17 Noroeste 35 Noroeste 0 887 -1.1 12
2017-09-08 18:00:00 28 17 Noroeste 31 Noroeste 0 887.2 -1.5 12
2017-09-08 17:00:00 28.3 16 Noroeste 31 Noroeste 0 887.5 -1.8 11
2017-09-08 16:00:00 28.6 10 Oeste 25 Noroeste 0 888.1 -1.9 11
2017-09-08 15:00:00 27.5 8 Norte 18 Norte 0 888.7 -1.6 12
2017-09-08 14:00:00 26.5 6 Sudoeste 17 Sur 0 889.3 -1.3 17
2017-09-08 13:00:00 25.4 8 Sudoeste 13 Sudoeste 0 890 -0.4 18
2017-09-08 12:00:00 23.1 2 Norte 6 Sudeste 0 890.3 -0.2 22
2017-09-08 11:00:00 19.7 3 Sudoeste 6 Sudoeste 0 890.6 0.2 31
2017-09-08 10:00:00 15.6 0 Calma 6 Sur 0 890.4 0 37
2017-09-08 09:00:00 11.9 3 Sur 6 Sudoeste 0 890.5 -0.2 42
2017-09-08 08:00:00 10.6 3 Sudeste 6 Sur 0 890.4 -0.7 49
2017-09-08 07:00:00 10.5 4 Sur 7 Sudeste 0 890.4 -1 51
2017-09-08 06:00:00 10.6 2 Sur 6 Sur 0 890.7 -1.3 51
2017-09-08 05:00:00 10.8 3 Sudeste 7 Sur 0 891.1 -1.1 53
2017-09-08 04:00:00 11.6 2 Sudeste 8 Sudoeste 0 891.4 -1.1 50
2017-09-08 03:00:00 12.3 4 Sur 8 Sur 0 892 -0.8 44
2017-09-08 02:00:00 12.9 0 Calma 10 Sudoeste 0 892.2 -0.6 48
2017-09-08 01:00:00 14.1 4 Sudeste 10 Sudoeste 0 892.5 -0.2 44
2017-09-08 00:00:00 15.2 4 Sudoeste 13 Sur 0 892.8 0.5 37
2017-09-07 23:00:00 16 4 Sur 6 Sur 0 892.8 0.6 42
2017-09-07 22:00:00 19.2 3 Norte 10 Norte 0 892.7 0.6 30
2017-09-07 21:00:00 21.3 6 Nordeste 10 Norte 0 892.3 0 24
2017-09-07 20:00:00 23 7 Norte 20 Norte 0 892.2 -0.6 23
2017-09-07 19:00:00 24.1 10 Norte 21 Norte 0 892.1 -1.3 20
2017-09-07 18:00:00 24.2 11 Nordeste 23 Norte 0 892.3 -1.3 22
2017-09-07 17:00:00 24.4 11 Norte 25 Norte 0 892.8 -1.3 24
2017-09-07 16:00:00 23.5 14 Norte 27 Nordeste 0 893.4 -0.8 24
2017-09-07 15:00:00 22.7 15 Norte 23 Norte 0 893.6 -1 25
2017-09-07 14:00:00 20.8 13 Norte 27 Norte 0 894.1 -0.4 34
2017-09-07 13:00:00 20.1 10 Noroeste 19 Norte 0 894.2 0.1 48
2017-09-07 12:00:00 17.7 9 Noroeste 17 Noroeste 0 894.6 0.6 56
2017-09-07 11:00:00 16.6 3 Sudoeste 9 Noroeste 0 894.5 0.5 54
2017-09-07 10:00:00 13.4 4 Sudoeste 6 Sur 0 894.1 0.3 66
2017-09-07 09:00:00 10.5 4 Sur 9 Sudeste 0 894 0.2 82
2017-09-07 08:00:00 9.2 2 Noroeste 8 Norte 0 894 -0.2 86
2017-09-07 07:00:00 9.4 3 Norte 8 Sudeste 0 893.8 -0.8 85
2017-09-07 06:00:00 10.1 4 Sur 8 Sur 0 893.8 -1.4 83
2017-09-07 05:00:00 10.9 3 Noroeste 8 Noroeste 0 894.2 -1 78
2017-09-07 04:00:00 11.9 0 Calma 9 Norte 0 894.6 -0.9 76
2017-09-07 03:00:00 13.1 4 Norte 18 Norte 0 895.2 -0.4 74
2017-09-07 02:00:00 14.6 8 Norte 17 Norte 0 895.2 -0.3 66
2017-09-07 01:00:00 16 4 Noroeste 12 Norte 0 895.5 0.4 62
2017-09-07 00:00:00 17.2 10 Norte 15 Noroeste 0 895.6 1.4 57
2017-09-06 23:00:00 18.6 9 Norte 27 Norte 0 895.5 1.8 51
2017-09-06 22:00:00 20 19 Nordeste 33 Nordeste 0 895.1 1.3 52
2017-09-06 21:00:00 22.9 17 Norte 33 Norte 0 894.2 0.3 47
2017-09-06 20:00:00 25.9 15 Norte 25 Norte 0 893.7 -0.6 35
2017-09-06 19:00:00 26.9 14 Norte 30 Norte 0 893.8 -1.1 33
2017-09-06 18:00:00 27.4 14 Norte 30 Norte 0 893.9 -1.6 34
2017-09-06 17:00:00 27.4 13 Norte 27 Norte 0 894.3 -1.6 34
2017-09-06 16:00:00 26.5 12 Norte 25 Norte 0 894.9 -1.6 35
2017-09-06 15:00:00 26 15 Norte 26 Norte 0 895.5 -1 38
2017-09-06 14:00:00 24.9 12 Noroeste 27 Norte 0 895.9 -0.6 44
2017-09-06 13:00:00 23.1 11 Norte 23 Norte 0 896.5 0.1 51
2017-09-06 12:00:00 22.2 10 Norte 15 Norte 0 896.5 0.2 54
2017-09-06 11:00:00 21.1 9 Norte 14 Norte 0 896.5 0.3 52
2017-09-06 10:00:00 19.1 0 Calma 8 Sudeste 0 896.4 0.5 54
2017-09-06 09:00:00 15.9 6 Sudeste 9 Sudeste 0 896.3 0.5 63
2017-09-06 08:00:00 14.6 4 Nordeste 7 Nordeste 0 896.2 0.2 74
2017-09-06 07:00:00 14.3 0 Calma 5 Sudeste 0 895.9 -0.5 63
2017-09-06 06:00:00 15.2 2 Sudeste 5 Nordeste 0 895.8 -1 61
2017-09-06 05:00:00 15.7 0 Calma 8 Sur 0 896 -0.8 57
2017-09-06 04:00:00 16.6 3 Sudoeste 8 Sur 0 896.4 -0.4 51
2017-09-06 03:00:00 17.3 3 Sudoeste 8 Este 0 896.8 0.1 54
2017-09-06 02:00:00 18.9 4 Oeste 12 Oeste 0 896.8 0.2 46
2017-09-06 01:00:00 18.6 3 Oeste 8 Oeste 0 896.8 0.7 52
2017-09-06 00:00:00 20.1 4 Sudoeste 8 Sudoeste 0 896.7 1.2 46
2017-09-05 23:00:00 22.3 3 Sur 12 Noroeste 0 896.6 1.4 42
2017-09-05 22:00:00 24.3 5 Noroeste 13 Norte 0 896.1 1.2 32
2017-09-05 21:00:00 26 7 Norte 21 Norte 0 895.5 0.8 31
2017-09-05 20:00:00 28.1 15 Noroeste 26 Norte 0 895.2 0.3 25
2017-09-05 19:00:00 29.2 17 Noroeste 30 Norte 0 894.9 -0.1 23
2017-09-05 18:00:00 29.4 13 Norte 29 Norte 0 894.7 -0.8 23
2017-09-05 17:00:00 29.4 13 Norte 26 Norte 0 894.9 -0.8 26
2017-09-05 16:00:00 29.2 10 Nordeste 21 Nordeste 0 895 -1 28
2017-09-05 15:00:00 28.5 6 Sudeste 19 Sur 0 895.5 -0.7 33
2017-09-05 14:00:00 27.3 7 Sudeste 17 Sudeste 0 895.7 -0.1 34
2017-09-05 13:00:00 26.6 6 Sudeste 22 Sudeste 0 896 0.3 35
2017-09-05 12:00:00 24.7 10 Sudeste 17 Sudeste 0 896.2 0.8 37
2017-09-05 11:00:00 21.9 6 Sudeste 12 Sudeste 0 895.8 0.8 51
2017-09-05 10:00:00 18.3 4 Sudoeste 9 Sur 0 895.7 1 58
2017-09-05 09:00:00 15.1 8 Sur 11 Sur 0 895.4 0.9 68
2017-09-05 08:00:00 14.2 4 Sur 12 Sur 0 895 0.5 71
2017-09-05 07:00:00 14.5 7 Sur 13 Sur 0 894.7 0.1 71
2017-09-05 06:00:00 14.4 7 Sur 11 Sur 0 894.5 0 71
2017-09-05 05:00:00 14.8 7 Sudoeste 11 Sur 0 894.5 0.2 70
2017-09-05 04:00:00 15 2 Sudoeste 9 Sur 0 894.6 0.5 70
2017-09-05 03:00:00 16.2 5 Sudoeste 13 Sur 0 894.5 0.4 64
2017-09-05 02:00:00 15.8 4 Sur 7 Sur 0 894.3 0.5 68
2017-09-05 01:00:00 16.4 3 Este 9 Sudoeste 0 894.1 0.7 67
2017-09-05 00:00:00 17.7 4 Sudeste 10 Sudeste 0 894.1 1.2 59
2017-09-04 23:00:00 19.2 5 Sudeste 9 Sur 0 893.8 1.3 54
2017-09-04 22:00:00 20.5 5 Nordeste 9 Nordeste 0 893.4 1.3 50
2017-09-04 21:00:00 22 6 Nordeste 15 Norte 0 892.9 1.2 46
2017-09-04 20:00:00 23.6 12 Norte 19 Nordeste 0 892.5 0.8 41
2017-09-04 19:00:00 24.1 9 Nordeste 22 Norte 0 892.1 0.4 41
2017-09-04 18:00:00 24.2 9 Norte 24 Norte 0 891.7 -0.1 41
2017-09-04 17:00:00 24.1 11 Norte 27 Norte 0 891.7 -0.2 39
2017-09-04 16:00:00 23.5 12 Norte 25 Norte 0 891.7 -0.3 43
2017-09-04 15:00:00 22.8 10 Norte 28 Nordeste 0 891.8 -0.2 45
2017-09-04 14:00:00 21.1 12 Norte 24 Noroeste 0 891.9 0.3 51
2017-09-04 13:00:00 19.9 11 Norte 22 Norte 0 892 1 54
2017-09-04 12:00:00 18.6 12 Norte 23 Norte 0 892 1.3 61
2017-09-04 11:00:00 17.9 10 Norte 18 Noroeste 0 891.6 1.1 63
2017-09-04 10:00:00 16.5 9 Oeste 18 Sudoeste 0 891 1 68
2017-09-04 09:00:00 15.2 10 Oeste 19 Oeste 0 890.7 0.9 75
2017-09-04 08:00:00 14.3 9 Noroeste 22 Oeste 0 890.5 0.5 84
2017-09-04 07:00:00 14.8 13 Noroeste 25 Noroeste 0 890 -0.1 84
2017-09-04 06:00:00 16.1 13 Oeste 27 Oeste 0 889.8 -0.2 73
2017-09-04 05:00:00 16.4 9 Oeste 21 Oeste 0 890 -0.3 63
2017-09-04 04:00:00 15.6 5 Oeste 12 Sudoeste 0 890.1 -0.4 53
2017-09-04 03:00:00 16.4 8 Sudoeste 14 Oeste 0 890 -0.2 41
2017-09-04 02:00:00 17.5 7 Oeste 24 Oeste 0 890.3 0.3 37
2017-09-04 01:00:00 19 8 Sudoeste 26 Sudoeste 0 890.5 1 31
2017-09-04 00:00:00 19.6 8 Sudoeste 16 Noroeste 0 890.2 1.4 27
2017-09-03 23:00:00 20.2 8 Noroeste 13 Noroeste 0 890 1.4 24
2017-09-03 22:00:00 22 4 Noroeste 9 Noroeste 0 889.5 0.7 22
2017-09-03 21:00:00 24.4 6 Noroeste 22 Oeste 0 888.8 -0.4 19
2017-09-03 20:00:00 26.9 13 Oeste 26 Oeste 0 888.6 -0.8 20
2017-09-03 19:00:00 28.1 15 Oeste 28 Oeste 0 888.8 -1 16
2017-09-03 18:00:00 28.3 14 Oeste 37 Oeste 0 889.2 -1.1 16
2017-09-03 17:00:00 28 19 Noroeste 34 Oeste 0 889.4 -1.2 16
2017-09-03 16:00:00 28.2 18 Noroeste 31 Noroeste 0 889.8 -1.3 15
2017-09-03 15:00:00 27.8 14 Noroeste 30 Norte 0 890.3 -1.2 13
2017-09-03 14:00:00 26.9 13 Oeste 27 Oeste 0 890.6 -1.2 16
2017-09-03 13:00:00 25.8 12 Noroeste 21 Noroeste 0 891.1 -0.9 21
2017-09-03 12:00:00 23.7 5 Sudoeste 11 Oeste 0 891.5 -0.6 27
2017-09-03 11:00:00 20.9 4 Sudoeste 12 Sur 0 891.8 -0.4 35
2017-09-03 10:00:00 18.2 3 Sudoeste 6 Sur 0 892 -0.2 40
2017-09-03 09:00:00 15.6 5 Sur 10 Sur 0 892.1 -0.2 46
2017-09-03 08:00:00 14.6 0 Calma 14 Sur 0 892.2 -0.5 44
2017-09-03 07:00:00 13.9 3 Sur 6 Sudeste 0 892.2 -0.9 50
2017-09-03 06:00:00 13.6 3 Sudeste 9 Sur 0 892.3 -1.3 51
2017-09-03 05:00:00 13.8 5 Sur 9 Sur 0 892.7 -1.2 47
2017-09-03 04:00:00 13.2 3 Sur 6 Sudoeste 0 893.1 -1.2 50
2017-09-03 03:00:00 13.8 2 Sudeste 8 Sur 0 893.6 -0.9 46
2017-09-03 02:00:00 14.1 3 Sur 6 Sur 0 893.9 -0.6 48
2017-09-03 01:00:00 14.8 0 Calma 7 Sur 0 894.3 -0.2 42
2017-09-03 00:00:00 15 3 Sudeste 6 Sudeste 0 894.5 0.5 47
2017-09-02 23:00:00 16.2 2 Sur 5 Sur 0 894.5 0.7 41
2017-09-02 22:00:00 19.5 5 Nordeste 13 Nordeste 0 894.5 0.6 26
2017-09-02 21:00:00 21.2 7 Nordeste 14 Norte 0 894 0.1 24
2017-09-02 20:00:00 23.4 9 Norte 18 Norte 0 893.8 -0.6 19
2017-09-02 19:00:00 24.4 13 Norte 21 Norte 0 893.9 -1 16
2017-09-02 18:00:00 25.1 11 Norte 23 Nordeste 0 893.9 -1.5 17
2017-09-02 17:00:00 24.9 8 Norte 16 Nordeste 0 894.4 -1.4 16
2017-09-02 16:00:00 23.7 6 Nordeste 20 Norte 0 894.9 -1.5 23
2017-09-02 15:00:00 22.9 8 Norte 19 Norte 0 895.4 -1.1 28
2017-09-02 14:00:00 21.5 5 Este 17 Norte 0 895.8 -0.9 28
2017-09-02 13:00:00 19.3 6 Norte 15 Nordeste 0 896.4 0 39
2017-09-02 12:00:00 17.6 9 Nordeste 19 Norte 0 896.5 0.1 42
2017-09-02 11:00:00 15 2 Noroeste 10 Oeste 0 896.7 0.8 50
2017-09-02 10:00:00 11.6 4 Sudoeste 8 Sudoeste 0 896.4 0.6 66
2017-09-02 09:00:00 9.5 4 Sur 7 Sur 0 896.4 0.9 72
2017-09-02 08:00:00 7.9 2 Sudeste 8 Sudoeste 0 895.9 0.2 79
2017-09-02 07:00:00 8.3 4 Sur 8 Sur 0 895.8 -0.1 79
2017-09-02 06:00:00 8.8 3 Sudeste 9 Sur 0 895.5 -0.7 79
2017-09-02 05:00:00 9.5 0 Calma 7 Noroeste 0 895.7 -0.4 77
2017-09-02 04:00:00 10.4 5 Noroeste 8 Noroeste 0 895.9 0 73
2017-09-02 03:00:00 11.4 6 Norte 12 Norte 0 896.2 0.7 68
2017-09-02 02:00:00 12 3 Noroeste 11 Norte 0 896.1 1.1 65
2017-09-02 01:00:00 13.2 5 Nordeste 12 Noroeste 0 895.9 1.4 58
2017-09-02 00:00:00 14.2 6 Norte 21 Norte 0 895.5 2.1 52
2017-09-01 23:00:00 15.5 11 Norte 26 Nordeste 0 895 2.1 46
2017-09-01 22:00:00 16.9 12 Nordeste 25 Nordeste 0 894.5 1.9 45
2017-09-01 21:00:00 19 12 Norte 24 Norte 0 893.4 0.9 40
2017-09-01 20:00:00 21.1 15 Norte 27 Norte 0 892.9 0.3 31
2017-09-01 19:00:00 21.8 16 Norte 27 Norte 0 892.6 -0.2 32
2017-09-01 18:00:00 22.1 14 Norte 30 Norte 0 892.5 -0.8 30
2017-09-01 17:00:00 22.5 17 Norte 38 Norte 0 892.6 -1 32
2017-09-01 16:00:00 22.4 14 Norte 29 Norte 0 892.8 -0.9 35
2017-09-01 15:00:00 21.9 13 Noroeste 27 Norte 0 893.3 -0.4 35
2017-09-01 14:00:00 21.3 13 Norte 25 Norte 0 893.6 0 40
2017-09-01 13:00:00 20.4 14 Norte 21 Norte 0 893.7 0.4 40
2017-09-01 12:00:00 20 12 Norte 19 Norte 0 893.7 0.6 47
2017-09-01 11:00:00 18.4 5 Sudoeste 10 Noroeste 0 893.6 0.9 57
2017-09-01 10:00:00 15.9 4 Oeste 8 Sudoeste 0 893.3 0.8 63
2017-09-01 09:00:00 13 3 Sudoeste 10 Sur 0 893.1 0.6 77
2017-09-01 08:00:00 12.1 4 Sudoeste 7 Sudoeste 0 892.7 0.1 80
2017-09-01 07:00:00 12.4 2 Sur 11 Sur 0 892.5 -0.1 78
2017-09-01 06:00:00 12.4 2 Sudoeste 9 Sur 0 892.5 -0.3 78
2017-09-01 05:00:00 12.5 3 Sur 8 Oeste 0 892.6 -0.4 78
2017-09-01 04:00:00 12.9 4 Sudeste 11 Sur 0 892.6 -0.5 77
2017-09-01 03:00:00 13.2 4 Sur 7 Sur 0 892.8 -0.3 78
2017-09-01 02:00:00 14.1 0 Calma 7 Norte 0 893 0.1 74
2017-09-01 01:00:00 15.2 3 Norte 14 Norte 0 893.1 0.5 69
2017-09-01 00:00:00 16.2 10 Norte 16 Norte 0 893.1 1.1 62
2017-08-31 23:00:00 17.3 8 Norte 12 Norte 0 892.9 1.2 59
2017-08-31 22:00:00 18.3 7 Norte 21 Norte 0 892.6 1.2 55
2017-08-31 21:00:00 19.9 10 Norte 21 Noroeste 0 892 0.8 52
2017-08-31 20:00:00 20.8 12 Norte 23 Noroeste 0 891.7 0.4 51
2017-08-31 19:00:00 21.7 13 Norte 25 Noroeste 0 891.4 -0.2 49
2017-08-31 18:00:00 22.2 16 Norte 30 Noroeste 0 891.2 -0.7 49
2017-08-31 17:00:00 22.6 13 Norte 26 Norte 0 891.3 -1 50
2017-08-31 16:00:00 22 14 Norte 27 Norte 0 891.6 -1.1 52
2017-08-31 15:00:00 21 12 Norte 22 Norte 0 891.9 -1 57
2017-08-31 14:00:00 21.1 10 Nordeste 22 Norte 0 892.3 -0.5 59
2017-08-31 13:00:00 20.5 5 Este 14 Nordeste 0 892.7 0.2 61
2017-08-31 12:00:00 17.6 3 Oeste 10 Oeste 0 892.9 0.7 73
2017-08-31 11:00:00 16.4 3 Este 9 Norte 0 892.8 1.4 76
2017-08-31 10:00:00 14.5 3 Este 10 Norte 0 892.5 1.4 84
2017-08-31 09:00:00 13.7 5 Este 11 Nordeste 0 892.2 1.3 89
2017-08-31 08:00:00 13.2 5 Norte 11 Nordeste 0 891.4 0.5 96
2017-08-31 07:00:00 13.1 8 Norte 15 Norte 0 891.1 0.3 97
2017-08-31 06:00:00 13.3 5 Norte 10 Noroeste 0 890.9 0.1 96
2017-08-31 05:00:00 13.9 5 Norte 9 Norte 0 890.9 -0.2 93
2017-08-31 04:00:00 14.1 5 Norte 8 Noroeste 0 890.8 -0.4 93
2017-08-31 03:00:00 14.1 4 Noroeste 7 Noroeste 0 890.8 -0.4 92
2017-08-31 02:00:00 14.1 0 Calma 10 Norte 0 891.1 0.2 90
2017-08-31 01:00:00 14.3 9 Norte 22 Noroeste 3.4 891.2 1.2 92
2017-08-31 00:00:00 15.8 10 Norte 22 Nordeste 0 891.2 2.1 80
2017-08-30 23:00:00 17.5 16 Norte 27 Nordeste 0 890.9 2.1 74
2017-08-30 22:00:00 19.7 11 Oeste 23 Oeste 0 890 1.3 49
2017-08-30 21:00:00 20.6 5 Sudeste 11 Sudeste 0 889.1 0.4 49
2017-08-30 20:00:00 21.8 4 Este 14 Sudeste 0 888.8 0 38
2017-08-30 19:00:00 21.9 6 Sudeste 13 Sudeste 0 888.7 -0.4 38
2017-08-30 18:00:00 22.1 3 Sudeste 11 Sudeste 0 888.7 -0.6 36
2017-08-30 17:00:00 22.4 6 Oeste 13 Oeste 0 888.8 -0.6 36
2017-08-30 16:00:00 22 7 Nordeste 16 Norte 0 889.1 -0.9 37
2017-08-30 15:00:00 23.1 6 Sudoeste 35 Oeste 0 889.3 -0.9 36
2017-08-30 14:00:00 22.7 7 Sur 19 Sudeste 0 889.4 -0.8 36
2017-08-30 13:00:00 21.9 5 Sudoeste 18 Sudoeste 0 890 0.3 36
2017-08-30 12:00:00 19.8 8 Sudoeste 19 Sudoeste 0 890.2 0.4 45
2017-08-30 11:00:00 18.1 11 Sur 19 Sudeste 0 890.2 0.8 63
2017-08-30 10:00:00 16.3 8 Sudeste 16 Sudeste 0 889.7 0.5 75
2017-08-30 09:00:00 13.6 4 Sur 7 Sudeste 0 889.8 0.7 76
2017-08-30 08:00:00 11.7 3 Oeste 8 Sudeste 0 889.4 0.4 85
2017-08-30 07:00:00 12 5 Sudeste 9 Noroeste 0 889.2 0 83
2017-08-30 06:00:00 12.4 3 Sur 6 Este 0 889.1 -0.3 80
2017-08-30 05:00:00 13.3 0 Calma 11 Sudoeste 0 889 -0.1 76
2017-08-30 04:00:00 13.8 5 Oeste 11 Sudoeste 0 889.2 0 72
2017-08-30 03:00:00 13.6 7 Sur 12 Sur 0 889.4 0 77
2017-08-30 02:00:00 14.5 3 Sudoeste 7 Sudoeste 0 889.1 0 75
2017-08-30 01:00:00 15 4 Sudeste 11 Sudeste 0 889.2 1.1 71
2017-08-30 00:00:00 15.1 5 Este 10 Este 0 889.4 1.7 68
2017-08-29 23:00:00 15.4 3 Noroeste 12 Oeste 0 889.1 1.3 68
2017-08-29 22:00:00 16.7 4 Sudeste 8 Sur 0 888.1 0.6 63
2017-08-29 21:00:00 18.1 4 Oeste 10 Oeste 0 887.7 0.2 53
2017-08-29 20:00:00 19.4 8 Sudoeste 19 Oeste 0 887.8 0.3 49
2017-08-29 19:00:00 20.6 10 Sudoeste 21 Oeste 0 887.5 -0.2 45
2017-08-29 18:00:00 20.5 10 Sur 26 Sur 0 887.5 -0.4 47
2017-08-29 17:00:00 20.2 12 Sudeste 25 Sudeste 0 887.5 -0.8 45
2017-08-29 16:00:00 20.9 13 Sudeste 22 Sur 0 887.7 -1.3 46
2017-08-29 15:00:00 21.9 13 Sur 28 Sur 0 887.9 -1.1 48
2017-08-29 14:00:00 20.7 9 Sudoeste 18 Sudeste 0 888.3 -0.8 49
2017-08-29 13:00:00 19.1 10 Sudeste 23 Sudeste 0 889 0.2 61
2017-08-29 12:00:00 19 10 Sudeste 23 Sudeste 0 889 0.4 62
2017-08-29 11:00:00 17.1 10 Sudeste 20 Sur 0 889.1 0.9 72
2017-08-29 10:00:00 15.2 8 Sudeste 15 Sur 0 888.8 0.7 82
2017-08-29 09:00:00 14.1 6 Sudeste 13 Sudeste 0 888.6 0.9 90
2017-08-29 08:00:00 13.7 6 Sudeste 28 Sudeste 0 888.2 0.1 92
2017-08-29 07:00:00 13.8 6 Sur 12 Sur 0 888.1 -0.4 92
2017-08-29 06:00:00 13.5 9 Sur 24 Sur 0 887.7 -0.7 92
2017-08-29 05:00:00 13.6 5 Sur 15 Sur 0 888.1 -0.9 91
2017-08-29 04:00:00 13.8 8 Sur 19 Sur 0 888.5 -0.8 91
2017-08-29 03:00:00 13.9 9 Sudeste 25 Sudeste 0 888.4 -0.7 89
2017-08-29 02:00:00 14.3 13 Sudeste 33 Sudeste 0 889 0 85
2017-08-29 01:00:00 14.1 5 Sur 25 Sudeste 0 889.3 0.2 87
2017-08-29 00:00:00 14.5 8 Sudeste 21 Sudeste 0 889.1 0.3 84
2017-08-28 23:00:00 14.7 11 Sudeste 24 Sudeste 0 889 0.4 89
2017-08-28 22:00:00 15.2 6 Sudeste 14 Sudeste 0 889.1 0.1 88
2017-08-28 21:00:00 16.3 7 Sudeste 21 Sudeste 0 888.8 0.1 86
2017-08-28 20:00:00 17.2 13 Sudeste 23 Sudeste 0 888.6 -0.1 81
2017-08-28 19:00:00 17.1 8 Sudeste 23 Sudeste 0 889 -0.1 81
2017-08-28 18:00:00 17.5 10 Sudeste 25 Sudeste 0 888.7 -1.2 80
2017-08-28 17:00:00 17.5 10 Sudeste 22 Sudeste 0 888.7 -1 83
2017-08-28 16:00:00 16.5 3 Sudeste 30 Sudeste 1 889.1 -0.6 88
2017-08-28 15:00:00 16.3 13 Sudeste 32 Sudeste 5 889.9 0.8 88
2017-08-28 14:00:00 17.3 14 Sudeste 31 Sudeste 0 889.7 0.3 86
2017-08-28 13:00:00 18.4 14 Sudeste 24 Sudeste 0 889.7 0.5 76
2017-08-28 12:00:00 20 15 Sudeste 24 Sudeste 0 889.1 0.1 68
2017-08-28 11:00:00 17.7 9 Sudeste 25 Sudeste 0 889.4 0.5 79
2017-08-28 10:00:00 17 12 Sudeste 25 Sudeste 0 889.2 0.4 80
2017-08-28 09:00:00 16.1 10 Sudeste 25 Sur 0 889 0.7 86
2017-08-28 08:00:00 15.3 9 Sudeste 23 Sur 0.6 888.9 0.2 90
2017-08-28 07:00:00 15.3 8 Sudeste 23 Sudeste 2.8 888.8 -0.1 89
2017-08-28 06:00:00 16 13 Sudeste 25 Sudeste 0 888.3 -0.2 82
2017-08-28 05:00:00 16 10 Sudeste 20 Sudeste 0 888.7 -0.6 81
2017-08-28 04:00:00 16 9 Sudeste 34 Sudeste 0 888.9 -0.6 80
2017-08-28 03:00:00 16.2 17 Sudeste 41 Sur 0 888.5 -1.3 81
2017-08-28 02:00:00 15.8 9 Sudeste 14 Sudeste 0 889.3 0.7 88
2017-08-28 01:00:00 15.2 8 Este 22 Sudeste 12.6 889.5 1 92
2017-08-28 00:00:00 16.5 14 Sur 40 Sur 10.2 889.8 1.4 77
2017-08-27 23:00:00 17.5 5 Sur 39 Sudeste 0 888.6 0.2 76
2017-08-27 22:00:00 17.8 14 Sudeste 28 Sudeste 0 888.5 -0.8 75
2017-08-27 21:00:00 15.9 7 Sur 19 Este 0 888.4 -0.7 88
2017-08-27 20:00:00 14.5 13 Este 23 Este 0 888.4 -0.4 90
2017-08-27 19:00:00 12.5 6 Nordeste 58 Oeste 17.2 889.3 0 92
2017-08-27 18:00:00 20.2 4 Sudeste 43 Sudeste 0 889.1 -0.5 65
2017-08-27 17:00:00 20.9 20 Sudeste 45 Sudeste 0 888.8 -0.9 60
2017-08-27 16:00:00 21.1 14 Sudeste 34 Sur 0 889.3 -1.3 53
2017-08-27 15:00:00 23.4 18 Sur 35 Sudeste 0 889.6 -0.9 45
2017-08-27 14:00:00 19.7 17 Sur 41 Sur 0.2 889.7 -1.2 63
2017-08-27 13:00:00 17.7 9 Sudeste 28 Sur 0.2 890.6 0.5 77
2017-08-27 12:00:00 17.3 13 Sudeste 30 Sudeste 2.2 890.5 0.8 82
2017-08-27 11:00:00 21.6 11 Sur 24 Sur 0 890.9 1.8 49
2017-08-27 10:00:00 21.6 9 Sudeste 26 Sudeste 0 890.1 1.8 47
2017-08-27 09:00:00 21 9 Sudeste 28 Sudeste 0 889.7 1.8 49
2017-08-27 08:00:00 19.7 13 Sudeste 38 Sudeste 0 889.1 0.6 55
2017-08-27 07:00:00 19.9 24 Sudeste 45 Sudeste 0 888.3 -1.4 59
2017-08-27 06:00:00 20.8 21 Sudeste 39 Sudeste 0 887.9 -3 48
2017-08-27 05:00:00 19.2 9 Este 20 Sudeste 0 888.5 -0.8 52
2017-08-27 04:00:00 18.9 9 Este 41 Sudoeste 0 889.7 0.6 57
2017-08-27 03:00:00 22.7 19 Sur 40 Sudoeste 0 890.9 1.4 32
2017-08-27 02:00:00 22.6 13 Sur 39 Sudeste 0 889.3 -0.4 31
2017-08-27 01:00:00 22.6 19 Sudeste 36 Sudeste 0 889.1 -0.9 29
2017-08-27 00:00:00 22.6 17 Sudeste 29 Sudeste 0 889.5 -0.3 30
2017-08-26 23:00:00 22.1 8 Sur 19 Sur 0 889.7 -0.2 33
2017-08-26 22:00:00 21.7 5 Sudeste 10 Sudeste 0 890 -0.1 34
2017-08-26 21:00:00 23.3 6 Este 17 Oeste 0 889.8 -0.9 32
2017-08-26 20:00:00 24.1 5 Sudoeste 34 Sudoeste 0 889.9 -1 30
2017-08-26 19:00:00 24.6 17 Sudoeste 43 Sur 0 890.1 -1 28
2017-08-26 18:00:00 25.3 24 Sudoeste 53 Sudoeste 0 890.7 -0.9 27
2017-08-26 17:00:00 25.3 17 Sudoeste 38 Sur 0 890.9 -0.4 25
2017-08-26 16:00:00 26 16 Sudoeste 40 Sudoeste 0 891.1 -0.4 24
2017-08-26 15:00:00 25.9 23 Sudoeste 53 Oeste 0 891.6 -0.4 24
2017-08-26 14:00:00 26.3 13 Sur 35 Sudoeste 0 891.3 0.1 23
2017-08-26 13:00:00 26.9 8 Sudoeste 14 Oeste 0 891.5 1.2 21
2017-08-26 12:00:00 24.9 8 Sudoeste 16 Oeste 0 892 2 20
2017-08-26 11:00:00 25.1 4 Oeste 14 Sudeste 0 891.2 1.5 22
2017-08-26 10:00:00 24 7 Sudeste 22 Sur 0 890.3 0.9 22
2017-08-26 09:00:00 23.4 5 Sur 22 Sur 0 890 0.6 23
2017-08-26 08:00:00 21.7 8 Sur 24 Sur 0 889.7 0.2 25
2017-08-26 07:00:00 22.1 14 Sur 23 Sur 0 889.4 -0.3 23
2017-08-26 06:00:00 21.2 6 Sur 19 Sudeste 0 889.4 -0.4 24
2017-08-26 05:00:00 19.4 8 Sudeste 12 Sudeste 0 889.5 -0.8 26
2017-08-26 04:00:00 19.3 5 Sur 8 Sur 0 889.7 -0.9 29
2017-08-26 03:00:00 19 2 Nordeste 10 Sur 0 889.8 -0.8 34
2017-08-26 02:00:00 19.6 5 Sur 10 Sudeste 0 890.3 -0.2 30
2017-08-26 01:00:00 20.3 5 Este 8 Sur 0 890.6 0.4 28
2017-08-26 00:00:00 20.6 3 Sudeste 8 Este 0 890.6 0.8 29
2017-08-25 23:00:00 23.1 4 Sudoeste 14 Sur 0 890.5 0.7 24
2017-08-25 22:00:00 24.6 8 Sudoeste 19 Sudoeste 0 890.2 0.4 21
2017-08-25 21:00:00 26.5 6 Sudoeste 22 Sudoeste 0 889.8 0.2 21
2017-08-25 20:00:00 27.6 14 Sudoeste 34 Sudoeste 0 889.8 -0.1 19
2017-08-25 19:00:00 29.8 17 Sudoeste 39 Sur 0 889.8 -0.6 15
2017-08-25 18:00:00 30.4 16 Sur 39 Sur 0 889.6 -0.8 15
2017-08-25 17:00:00 28.9 22 Sur 47 Sur 0 889.9 -0.7 15
2017-08-25 16:00:00 29.4 23 Sur 41 Sur 0 890.4 -0.4 15
2017-08-25 15:00:00 30.8 20 Sur 35 Sudoeste 0 890.4 -0.5 14
2017-08-25 14:00:00 30.1 16 Sudoeste 44 Sudoeste 0 890.6 -0.3 16
2017-08-25 13:00:00 28.6 19 Sur 37 Sur 0 890.8 -0.1 18
2017-08-25 12:00:00 27.7 10 Sudoeste 31 Sudeste 0 890.9 0 23
2017-08-25 11:00:00 25.6 11 Sur 26 Sur 0 890.9 0.2 25
2017-08-25 10:00:00 23.2 10 Sur 19 Sur 0 890.9 0.6 28
2017-08-25 09:00:00 19.7 5 Sudeste 15 Sur 0 890.9 0.5 31
2017-08-25 08:00:00 16.7 7 Sur 13 Sudeste 0 890.7 0.2 31
2017-08-25 07:00:00 14.9 0 Calma 5 Nordeste 0 890.3 -0.5 44
2017-08-25 06:00:00 15.3 2 Este 6 Nordeste 0 890.4 -0.8 47
2017-08-25 05:00:00 16.1 3 Oeste 6 Oeste 0 890.5 -0.9 40
2017-08-25 04:00:00 16.3 4 Sudeste 9 Sur 0 890.8 -1 38
2017-08-25 03:00:00 17.5 5 Sur 7 Sur 0 891.2 -0.5 32
2017-08-25 02:00:00 18.5 6 Sudeste 9 Sudeste 0 891.4 -0.3 34
2017-08-25 01:00:00 18.8 2 Noroeste 8 Sudeste 0 891.8 0.5 33
2017-08-25 00:00:00 19.7 3 Nordeste 6 Sudeste 0 891.7 1.2 30
2017-08-24 23:00:00 21.3 4 Sur 9 Sudoeste 0 891.7 1.5 28
2017-08-24 22:00:00 24.1 4 Sudoeste 11 Sudoeste 0 891.3 0.9 20
2017-08-24 21:00:00 26 6 Sur 25 Sudoeste 0 890.5 0.1 18
2017-08-24 20:00:00 28.1 13 Sur 27 Sur 0 890.2 -0.1 16
2017-08-24 19:00:00 28.9 14 Sur 33 Sur 0 890.4 0 15
2017-08-24 18:00:00 29.7 17 Sur 34 Sur 0 890.4 -0.1 12
2017-08-24 17:00:00 30.7 19 Sur 42 Sur 0 890.3 -0.3 10
2017-08-24 16:00:00 30.9 19 Sur 39 Sur 0 890.4 -0.6 10
2017-08-24 15:00:00 30.2 22 Sur 44 Sur 0 890.5 -0.5 12
2017-08-24 14:00:00 29.1 19 Sur 39 Sur 0 890.6 -0.3 17
2017-08-24 13:00:00 28 21 Sur 42 Sur 0 891 0.2 19
2017-08-24 12:00:00 27.1 18 Sur 34 Sudoeste 0 891 0.4 24
2017-08-24 11:00:00 26.1 16 Sur 31 Sur 0 890.9 0.4 25
2017-08-24 10:00:00 24.2 13 Sur 20 Sur 0 890.8 0.4 31
2017-08-24 09:00:00 20.4 10 Sudeste 16 Sudeste 0 890.6 0.4 37
2017-08-24 08:00:00 17.2 6 Sur 12 Sudeste 0 890.5 0.2 36
2017-08-24 07:00:00 17.4 8 Sudeste 12 Sur 0 890.4 -0.2 38
2017-08-24 06:00:00 16.9 4 Sur 8 Sudeste 0 890.2 -0.7 40
2017-08-24 05:00:00 17.4 5 Sudeste 9 Sudeste 0 890.3 -0.7 41
2017-08-24 04:00:00 18.4 0 Calma 9 Este 0 890.6 -0.5 37
2017-08-24 03:00:00 19.4 8 Este 12 Este 0 890.9 -0.2 34
2017-08-24 02:00:00 20.2 3 Este 12 Sur 0 891 -0.1 32
2017-08-24 01:00:00 22.3 10 Sur 14 Sur 0 891.1 0.5 28
2017-08-24 00:00:00 23.9 5 Sudoeste 12 Sudoeste 0 891.1 1 27
2017-08-23 23:00:00 24.8 5 Sudoeste 12 Oeste 0 891.1 1.2 26
2017-08-23 22:00:00 27.3 4 Sudoeste 9 Oeste 0 890.6 0.5 27
2017-08-23 21:00:00 29.6 4 Nordeste 23 Noroeste 0 890.1 -0.1 22
2017-08-23 20:00:00 30.3 15 Norte 27 Norte 0 889.9 -0.7 21
2017-08-23 19:00:00 30.4 10 Sudeste 21 Sur 0 890.1 -0.8 23
2017-08-23 18:00:00 31.8 12 Sudeste 29 Sur 0 890.2 -0.9 21
2017-08-23 17:00:00 31 10 Sur 18 Sur 0 890.6 -0.7 23
2017-08-23 16:00:00 31.1 8 Sur 23 Sur 0 890.9 -0.9 22
2017-08-23 15:00:00 31.1 7 Sur 29 Sudoeste 0 891.1 -0.8 23
2017-08-23 14:00:00 31.2 14 Sur 25 Sur 0 891.3 -0.8 24
2017-08-23 13:00:00 30.9 9 Oeste 19 Oeste 0 891.8 0 22
2017-08-23 12:00:00 29.6 6 Sudoeste 11 Sudoeste 0 891.9 0.1 23
2017-08-23 11:00:00 25.5 4 Sur 8 Sur 0 892.1 0.5 29
2017-08-23 10:00:00 22.2 3 Sudoeste 7 Sur 0 891.8 0.4 38
2017-08-23 09:00:00 19.7 3 Sur 7 Sudeste 0 891.8 0.4 41
2017-08-23 08:00:00 17.3 3 Oeste 6 Sur 0 891.6 0 48
2017-08-23 07:00:00 17.7 3 Sur 7 Sur 0 891.4 -0.5 44
2017-08-23 06:00:00 17.8 3 Sudeste 8 Sudeste 0 891.4 -0.5 44
2017-08-23 05:00:00 18.1 4 Sur 8 Sur 0 891.6 -0.6 41
2017-08-23 04:00:00 18.9 2 Sudoeste 10 Sudoeste 0 891.9 -0.3 39
2017-08-23 03:00:00 19.5 3 Sur 8 Sur 0 891.9 -0.2 37
2017-08-23 02:00:00 20.6 3 Sur 10 Sudoeste 0 892.2 0.3 33
2017-08-23 01:00:00 21.3 0 Calma 4 Sudoeste 0 892.2 0.8 34
2017-08-23 00:00:00 23.6 0 Calma 8 Norte 0 892.1 1.2 30
2017-08-22 23:00:00 26.3 6 Noroeste 13 Noroeste 0 891.9 1.2 22
2017-08-22 22:00:00 27.6 8 Noroeste 18 Noroeste 0 891.4 0.6 20
2017-08-22 21:00:00 29.4 12 Noroeste 23 Norte 0 890.9 -0.1 19
2017-08-22 20:00:00 30.9 15 Norte 28 Norte 0 890.7 -0.5 18
2017-08-22 19:00:00 30.8 17 Norte 28 Nordeste 0 890.8 -0.9 20
2017-08-22 18:00:00 32 11 Noroeste 23 Norte 0 891 -1 21
2017-08-22 17:00:00 32.1 8 Oeste 21 Sudeste 0 891.2 -1.2 26
2017-08-22 16:00:00 33.1 8 Este 33 Este 0 891.7 -1.2 26
2017-08-22 15:00:00 31.8 9 Sudeste 26 Este 0 892 -1.2 27
2017-08-22 14:00:00 32.2 9 Sudeste 42 Sudeste 0 892.4 -0.7 29
2017-08-22 13:00:00 31 10 Sudoeste 20 Sudoeste 0 892.9 -0.3 29
2017-08-22 12:00:00 29.4 5 Sur 15 Sudoeste 0 893.2 0 32
2017-08-22 11:00:00 26.5 8 Sur 13 Sur 0 893.1 0.2 46
2017-08-22 10:00:00 22.7 7 Sur 10 Sur 0 893.2 0.4 51
2017-08-22 09:00:00 21.1 7 Sur 10 Sur 0 893.2 0.4 56
2017-08-22 08:00:00 19.6 7 Sur 10 Sur 0 892.9 0.2 60
2017-08-22 07:00:00 19.1 2 Sudoeste 10 Sur 0 892.8 0.1 56
2017-08-22 06:00:00 19.8 3 Sudeste 7 Sudeste 0 892.8 0.2 54
2017-08-22 05:00:00 20.8 3 Sudeste 9 Sudeste 0 892.7 0.2 55
2017-08-22 04:00:00 22.2 6 Este 10 Nordeste 0 892.7 0.4 48
2017-08-22 03:00:00 23.3 7 Este 12 Este 0 892.6 0.3 43
2017-08-22 02:00:00 23.6 7 Este 14 Sudeste 0 892.5 0.3 44
2017-08-22 01:00:00 24.4 6 Este 10 Este 0 892.3 0.5 37
2017-08-22 00:00:00 25.9 6 Sudeste 14 Sudeste 0 892.3 1.1 33